Elsa — WDB7862 — position and weather

sailwx.info

Track history (hours):
 
Tides and Currents Weather Stations Pressure Air Temp Water Temp Dewpoint Dewpoint Depression Visibility Wind Speed Wind Dir Waves Ship Positions

Elsa

Owner: GP RESOURCES INC., TERMINAL ISLAND, CA. More information available from US FCC via Universal Licensing System and Coast Guard Vessel Documentation Center.

Last reported at 2015-Aug-29 22:30 UTC. Time now 2015-Aug-31 00:33 UTC.
Position N 33°44' W 118°16'.

Length 18 m.

Type: Tug. MMSI: 366949020.

Date/timePositionNaut miles runAvg speedWind from/ knotsBaromVisibWave heightAir tempDewpointWater temp
2015-Aug-29 22:30N 33°44' W 118°16'5 5.2
2015-Aug-29 21:32N 33°44' W 118°10'0 0.1
2015-Aug-29 20:32N 33°44' W 118°10'0 0.0
2015-Aug-29 19:33N 33°44' W 118°10'0 0.0
2015-Aug-29 18:33N 33°44' W 118°10'0 0.1
2015-Aug-29 17:33N 33°44' W 118°10'0 0.0
2015-Aug-29 16:25N 33°44' W 118°10'0 0.0
2015-Aug-29 15:24N 33°44' W 118°10'0 0.0
2015-Aug-29 14:33N 33°44' W 118°10'  
2015-Aug-26 17:26N 33°44' W 118°16'1 0.2
2015-Aug-26 09:30N 33°43' W 118°15'4 4.7
2015-Aug-26 08:33N 33°44' W 118°10'0 0.1
2015-Aug-26 07:34N 33°44' W 118°10'0 0.0
2015-Aug-26 06:28N 33°44' W 118°10'0 0.0
2015-Aug-26 05:33N 33°44' W 118°10'5 4.5
2015-Aug-26 04:33N 33°43' W 118°16'1 0.1
2015-Aug-25 08:15N 33°44' W 118°16'2 3.5
2015-Aug-25 07:33N 33°43' W 118°13'0 0.0
2015-Aug-25 06:32N 33°43' W 118°13'0 0.0
2015-Aug-25 05:32N 33°43' W 118°13'0 0.0
2015-Aug-25 04:33N 33°43' W 118°13'2 2.4
2015-Aug-25 03:33N 33°44' W 118°16'0 0.0
2015-Aug-24 14:32N 33°44' W 118°16'  
Track history (hours):
 
Tides and Currents Weather Stations Pressure Air Temp Water Temp Dewpoint Dewpoint Depression Visibility Wind Speed Wind Dir Waves Ship Positions

Elsa

Owner: GP RESOURCES INC., TERMINAL ISLAND, CA. More information available from US FCC via Universal Licensing System and Coast Guard Vessel Documentation Center.

Last reported at 2015-Aug-29 22:30 UTC. Time now 2015-Aug-31 00:33 UTC.
Position N 33°44' W 118°16'.

Length 18 m.

Type: Tug. MMSI: 366949020.

Date/timePositionNaut miles runAvg speedWind from/ knotsBaromVisibWave heightAir tempDewpointWater temp
2015-Aug-29 22:30N 33°44' W 118°16'5 5.2
2015-Aug-29 21:32N 33°44' W 118°10'0 0.1
2015-Aug-29 20:32N 33°44' W 118°10'0 0.0
2015-Aug-29 19:33N 33°44' W 118°10'0 0.0
2015-Aug-29 18:33N 33°44' W 118°10'0 0.1
2015-Aug-29 17:33N 33°44' W 118°10'0 0.0
2015-Aug-29 16:25N 33°44' W 118°10'0 0.0
2015-Aug-29 15:24N 33°44' W 118°10'0 0.0
2015-Aug-29 14:33N 33°44' W 118°10'  
2015-Aug-26 17:26N 33°44' W 118°16'1 0.2
2015-Aug-26 09:30N 33°43' W 118°15'4 4.7
2015-Aug-26 08:33N 33°44' W 118°10'0 0.1
2015-Aug-26 07:34N 33°44' W 118°10'0 0.0
2015-Aug-26 06:28N 33°44' W 118°10'0 0.0
2015-Aug-26 05:33N 33°44' W 118°10'5 4.5
2015-Aug-26 04:33N 33°43' W 118°16'1 0.1
2015-Aug-25 08:15N 33°44' W 118°16'2 3.5
2015-Aug-25 07:33N 33°43' W 118°13'0 0.0
2015-Aug-25 06:32N 33°43' W 118°13'0 0.0
2015-Aug-25 05:32N 33°43' W 118°13'0 0.0
2015-Aug-25 04:33N 33°43' W 118°13'2 2.4
2015-Aug-25 03:33N 33°44' W 118°16'0 0.0
2015-Aug-24 14:32N 33°44' W 118°16'  

Dump ship's entire track history